Time;durP1;ratioP1;P1;durP2;ratioP2;P2;SDS_P1;SDS_P2;PMS_P1;PMS_P2;Temp;Humidity;BMP_temperature;BMP_pressure;BME280_temperature;BME280_humidity;BME280_pressure;Samples;Min_cycle;Max_cycle;Signal;HPM_P1;HPM_P2
2023/01/11 00:02:05;;;;;;;0.80;0.80;;;;;4.70;96089.00;;;;5016728;28;20259;-61
2023/01/11 00:04:32;;;;;;;0.83;0.83;;;;;4.70;96080.00;;;;5016755;28;20656;-61
2023/01/11 00:07:00;;;;;;;0.60;0.60;;;;;4.50;96081.00;;;;5015255;28;20225;-61
2023/01/11 00:09:27;;;;;;;0.67;0.67;;;;;4.60;96083.00;;;;5016641;28;20194;-61
2023/01/11 00:11:56;;;;;;;1.60;1.20;;;;;4.70;96079.00;;;;5016896;28;20251;-60
2023/01/11 00:14:24;;;;;;;0.70;0.70;;;;;4.60;96064.00;;;;5016524;28;20189;-61
2023/01/11 00:16:51;;;;;;;0.67;0.67;;;;;4.60;96077.00;;;;5016653;28;20711;-61
2023/01/11 00:19:19;;;;;;;0.60;0.60;;;;;4.70;96074.00;;;;5017781;28;20201;-60
2023/01/11 00:21:48;;;;;;;0.67;0.67;;;;;4.60;96061.00;;;;5016667;28;20197;-59
2023/01/11 00:24:15;;;;;;;0.60;0.60;;;;;4.70;96060.00;;;;5016550;28;20208;-60
2023/01/11 00:26:43;;;;;;;0.70;0.70;;;;;4.60;96054.00;;;;5015326;28;20282;-59
2023/01/11 00:29:12;;;;;;;1.77;1.67;;;;;4.60;96047.00;;;;5016770;28;20550;-60
2023/01/11 00:31:39;;;;;;;8.47;1.13;;;;;4.60;96040.00;;;;5016122;28;20189;-60
2023/01/11 00:34:06;;;;;;;0.70;0.70;;;;;4.70;96048.00;;;;5014849;28;20197;-60
2023/01/11 00:36:34;;;;;;;0.70;0.70;;;;;4.60;96042.00;;;;5014726;28;20260;-59
2023/01/11 00:39:02;;;;;;;0.70;0.70;;;;;4.60;96036.00;;;;5016031;28;20236;-59
2023/01/11 00:49:45;;;;;;;0.60;0.60;;;;;4.40;96023.00;;;;5015841;28;20621;-60
2023/01/11 00:52:13;;;;;;;0.60;0.60;;;;;4.50;96014.00;;;;5016507;28;20607;-59
2023/01/11 00:54:41;;;;;;;0.80;0.80;;;;;4.40;96016.00;;;;5015835;28;20197;-59
2023/01/11 00:57:09;;;;;;;0.60;0.60;;;;;4.50;96018.00;;;;5015273;28;20276;-59
2023/01/11 00:59:39;;;;;;;0.87;0.87;;;;;4.50;96021.00;;;;5015667;28;20194;-60
2023/01/11 01:02:07;;;;;;;0.70;0.70;;;;;4.50;96024.00;;;;5016280;28;20184;-59
2023/01/11 01:04:34;;;;;;;0.70;0.70;;;;;4.20;96019.00;;;;5015579;28;20201;-59
2023/01/11 01:07:02;;;;;;;0.60;0.60;;;;;4.20;96018.00;;;;5015315;28;20229;-60
2023/01/11 01:09:29;;;;;;;0.60;0.60;;;;;4.20;96016.00;;;;5015687;28;20201;-59
2023/01/11 01:11:57;;;;;;;0.60;0.60;;;;;4.20;96028.00;;;;5015331;28;20198;-59
2023/01/11 01:14:27;;;;;;;0.67;0.67;;;;;4.40;96015.00;;;;5015325;28;20206;-60
2023/01/11 01:16:57;;;;;;;0.80;0.80;;;;;4.40;96020.00;;;;5015305;28;20620;-60
2023/01/11 01:19:26;;;;;;;0.70;0.70;;;;;4.40;96008.00;;;;5015498;28;20233;-60
2023/01/11 01:21:54;;;;;;;0.50;0.50;;;;;4.30;96015.00;;;;5015494;28;20636;-60
2023/01/11 01:24:22;;;;;;;0.90;0.90;;;;;4.40;96003.00;;;;5015133;28;20244;-60
2023/01/11 01:26:49;;;;;;;0.63;0.63;;;;;4.40;96010.00;;;;5014944;28;20233;-59
2023/01/11 01:29:17;;;;;;;1.00;1.00;;;;;4.50;96007.00;;;;5015117;28;20197;-60
2023/01/11 01:31:44;;;;;;;1.23;1.13;;;;;4.50;96009.00;;;;5015027;28;20194;-60
2023/01/11 01:34:13;;;;;;;0.77;0.77;;;;;4.60;96009.00;;;;5015252;28;20197;-60
2023/01/11 01:36:41;;;;;;;0.70;0.70;;;;;4.60;96017.00;;;;5015008;28;20706;-59
2023/01/11 01:39:10;;;;;;;0.60;0.60;;;;;4.70;96000.00;;;;5015654;28;20200;-60
2023/01/11 01:41:37;;;;;;;0.60;0.60;;;;;4.60;96021.00;;;;5014840;28;20244;-60
2023/01/11 01:44:21;;;;;;;0.70;0.70;;;;;4.90;95999.00;;;;5015025;28;20197;-59
2023/01/11 01:46:48;;;;;;;0.70;0.70;;;;;4.80;95997.00;;;;5014450;28;20708;-60
2023/01/11 01:49:17;;;;;;;0.70;0.70;;;;;4.80;95981.00;;;;5014723;28;20189;-60
2023/01/11 01:51:52;;;;;;;0.60;0.60;;;;;4.80;95996.00;;;;5013332;28;20758;-60
2023/01/11 01:54:24;;;;;;;0.60;0.60;;;;;5.00;96001.00;;;;5014845;28;20587;-60
2023/01/11 01:56:55;;;;;;;0.60;0.60;;;;;5.00;95991.00;;;;5014561;28;20236;-60
2023/01/11 01:59:26;;;;;;;0.70;0.70;;;;;5.10;95989.00;;;;5014501;28;20197;-59
2023/01/11 02:01:53;;;;;;;0.80;0.80;;;;;5.00;95996.00;;;;5014475;28;20195;-59
2023/01/11 02:04:25;;;;;;;0.80;0.80;;;;;5.00;95981.00;;;;5014400;28;20194;-60
2023/01/11 02:06:56;;;;;;;0.97;0.97;;;;;5.20;95978.00;;;;5014591;28;20221;-59
2023/01/11 02:09:29;;;;;;;0.50;0.50;;;;;5.20;95977.00;;;;5013554;28;20179;-59
2023/01/11 02:11:58;;;;;;;0.60;0.60;;;;;5.30;95975.00;;;;5014315;28;20185;-60
2023/01/11 02:14:27;;;;;;;0.60;0.60;;;;;5.20;95967.00;;;;5014514;28;20212;-59
2023/01/11 02:16:55;;;;;;;1.13;1.13;;;;;5.10;95957.00;;;;5014118;28;20205;-60
2023/01/11 02:19:43;;;;;;;0.80;0.80;;;;;5.30;95954.00;;;;5014160;28;20680;-60
2023/01/11 02:23:06;;;;;;;0.63;0.63;;;;;5.10;95956.00;;;;5014615;28;20276;-60
2023/01/11 02:26:12;;;;;;;0.70;0.70;;;;;5.10;95958.00;;;;5014256;28;20704;-59
2023/01/11 02:28:46;;;;;;;0.60;0.60;;;;;5.20;95957.00;;;;5014361;28;20182;-59
2023/01/11 02:31:24;;;;;;;0.60;0.60;;;;;5.10;95951.00;;;;5014031;28;20189;-59
2023/01/11 02:33:56;;;;;;;0.60;0.60;;;;;5.20;95944.00;;;;5013900;28;20186;-60
2023/01/11 02:36:30;;;;;;;0.60;0.60;;;;;5.20;95934.00;;;;5013834;28;20214;-59
2023/01/11 02:39:05;;;;;;;0.80;0.80;;;;;5.20;95932.00;;;;5014102;28;20190;-59
2023/01/11 02:47:17;;;;;;;0.60;0.60;;;;;5.20;95943.00;;;;5013659;28;20225;-60
2023/01/11 02:49:52;;;;;;;0.50;0.50;;;;;5.20;95939.00;;;;5014154;28;20265;-60
2023/01/11 02:52:26;;;;;;;0.70;0.70;;;;;5.10;95937.00;;;;5013649;28;20231;-59
2023/01/11 02:54:57;;;;;;;0.60;0.60;;;;;5.10;95934.00;;;;5013886;28;20177;-60
2023/01/11 02:57:28;;;;;;;15.50;1.00;;;;;5.10;95933.00;;;;5013476;28;20227;-60
2023/01/11 02:59:57;;;;;;;0.60;0.60;;;;;5.20;95932.00;;;;5013949;28;20240;-60
2023/01/11 03:02:26;;;;;;;0.50;0.50;;;;;5.20;95932.00;;;;5013451;28;20189;-60
2023/01/11 03:04:53;;;;;;;0.60;0.60;;;;;5.30;95919.00;;;;5013417;28;20197;-60
2023/01/11 03:07:41;;;;;;;0.80;0.80;;;;;5.40;95924.00;;;;5013601;28;20675;-60
2023/01/11 03:10:22;;;;;;;1.07;1.07;;;;;5.40;95933.00;;;;5013465;28;20181;-60
2023/01/11 03:13:03;;;;;;;0.80;0.80;;;;;5.40;95934.00;;;;5012275;28;20177;-60
2023/01/11 03:15:54;;;;;;;1.00;1.00;;;;;5.40;95936.00;;;;5013542;28;20712;-60
2023/01/11 03:18:30;;;;;;;0.90;0.90;;;;;5.50;95925.00;;;;5013219;28;20236;-60
2023/01/11 03:21:08;;;;;;;0.50;0.50;;;;;5.50;95920.00;;;;5013283;28;20568;-60
2023/01/11 03:23:46;;;;;;;0.60;0.60;;;;;5.50;95918.00;;;;5013963;28;20510;-60
2023/01/11 03:26:25;;;;;;;1.03;0.80;;;;;5.60;95921.00;;;;5013331;28;20189;-60
2023/01/11 03:29:00;;;;;;;0.67;0.67;;;;;5.60;95918.00;;;;5011975;28;20185;-60
2023/01/11 03:31:34;;;;;;;0.70;0.70;;;;;5.40;95912.00;;;;5013457;28;20621;-60
2023/01/11 03:34:12;;;;;;;0.60;0.60;;;;;5.60;95905.00;;;;5013160;28;20253;-60
2023/01/11 03:36:46;;;;;;;0.70;0.70;;;;;5.50;95907.00;;;;5013069;28;20232;-61
2023/01/11 03:39:20;;;;;;;0.70;0.70;;;;;5.60;95904.00;;;;5013399;28;20272;-60
2023/01/11 03:41:54;;;;;;;1.23;1.23;;;;;5.60;95902.00;;;;5013914;28;20181;-60
2023/01/11 03:44:22;;;;;;;0.87;0.80;;;;;5.60;95907.00;;;;5013285;28;20193;-60
2023/01/11 03:46:56;;;;;;;0.80;0.80;;;;;5.80;95900.00;;;;5012924;28;20221;-61
2023/01/11 03:49:27;;;;;;;0.60;0.60;;;;;5.70;95892.00;;;;5013306;28;20557;-60
2023/01/11 03:51:57;;;;;;;0.67;0.67;;;;;5.80;95890.00;;;;5013224;28;20255;-60
2023/01/11 03:54:27;;;;;;;0.80;0.80;;;;;5.80;95886.00;;;;5013971;28;20201;-60
2023/01/11 03:57:02;;;;;;;1.33;1.23;;;;;5.80;95887.00;;;;5013258;28;20715;-60
2023/01/11 03:59:30;;;;;;;0.70;0.70;;;;;5.70;95880.00;;;;5013410;28;20189;-60
2023/01/11 04:01:59;;;;;;;0.60;0.60;;;;;5.70;95876.00;;;;5013355;28;20196;-60
2023/01/11 04:04:27;;;;;;;0.77;0.77;;;;;5.70;95887.00;;;;5013161;28;20205;-61
2023/01/11 04:06:54;;;;;;;1.03;1.03;;;;;5.70;95888.00;;;;5012674;28;20236;-60
2023/01/11 04:09:22;;;;;;;0.60;0.60;;;;;5.70;95872.00;;;;5012835;28;20199;-60
2023/01/11 04:11:49;;;;;;;1.23;1.23;;;;;5.70;95861.00;;;;5012877;28;20263;-60
2023/01/11 04:14:16;;;;;;;0.50;0.50;;;;;5.70;95854.00;;;;5013015;28;20197;-60
2023/01/11 04:16:44;;;;;;;3.13;1.43;;;;;5.70;95861.00;;;;5012888;28;20214;-60
2023/01/11 04:19:13;;;;;;;0.50;0.50;;;;;5.70;95864.00;;;;5012708;28;20248;-60
2023/01/11 04:21:40;;;;;;;0.60;0.60;;;;;5.70;95869.00;;;;5012697;28;20239;-60
2023/01/11 04:24:08;;;;;;;0.60;0.60;;;;;5.60;95879.00;;;;5012936;28;20658;-60
2023/01/11 04:26:35;;;;;;;0.60;0.60;;;;;5.70;95877.00;;;;5012612;28;20218;-61
2023/01/11 04:29:03;;;;;;;0.70;0.70;;;;;5.70;95877.00;;;;5012627;28;20657;-60
2023/01/11 04:31:30;;;;;;;0.60;0.60;;;;;5.80;95865.00;;;;5012645;28;20196;-60
2023/01/11 04:33:57;;;;;;;0.60;0.60;;;;;5.90;95858.00;;;;5015491;28;20193;-60
2023/01/11 04:36:27;;;;;;;1.17;1.17;;;;;5.90;95857.00;;;;5016458;28;20219;-60
2023/01/11 04:38:55;;;;;;;0.50;0.50;;;;;5.90;95841.00;;;;5015976;28;20205;-60
2023/01/11 04:44:07;;;;;;;0.60;0.60;;;;;5.80;95837.00;;;;5016488;28;20186;-60
2023/01/11 04:46:34;;;;;;;0.60;0.60;;;;;5.70;95836.00;;;;5015798;28;20693;-60
2023/01/11 04:49:02;;;;;;;0.70;0.70;;;;;5.70;95842.00;;;;5015891;28;20205;-60
2023/01/11 04:51:31;;;;;;;0.60;0.60;;;;;5.70;95846.00;;;;5015799;28;20208;-60
2023/01/11 04:53:58;;;;;;;0.60;0.60;;;;;5.90;95843.00;;;;5016004;28;20260;-60
2023/01/11 04:56:26;;;;;;;0.70;0.70;;;;;5.80;95834.00;;;;5015548;28;20217;-60
2023/01/11 04:58:54;;;;;;;0.70;0.70;;;;;5.90;95834.00;;;;5015939;28;20186;-60
2023/01/11 05:01:22;;;;;;;0.90;0.90;;;;;5.90;95832.00;;;;5015642;28;20759;-60
2023/01/11 05:03:50;;;;;;;0.50;0.50;;;;;5.90;95838.00;;;;5015568;28;20661;-60
2023/01/11 05:06:18;;;;;;;0.60;0.60;;;;;6.00;95847.00;;;;5015905;28;20641;-60
2023/01/11 05:08:48;;;;;;;3.40;1.17;;;;;6.10;95843.00;;;;5015395;28;20233;-60
2023/01/11 05:11:16;;;;;;;0.60;0.60;;;;;5.90;95834.00;;;;5016005;28;20248;-59
2023/01/11 05:13:44;;;;;;;0.60;0.60;;;;;5.90;95831.00;;;;5015370;28;20624;-60
2023/01/11 05:16:13;;;;;;;0.60;0.60;;;;;6.10;95833.00;;;;5015289;28;20279;-60
2023/01/11 05:18:41;;;;;;;0.60;0.60;;;;;6.00;95828.00;;;;5015323;28;20190;-59
2023/01/11 05:21:10;;;;;;;0.60;0.60;;;;;6.10;95827.00;;;;5015276;28;20193;-60
2023/01/11 05:23:38;;;;;;;0.50;0.50;;;;;6.10;95823.00;;;;5014074;28;20778;-60
2023/01/11 05:26:09;;;;;;;5.77;0.87;;;;;6.20;95828.00;;;;5015197;28;20201;-61
2023/01/11 05:28:36;;;;;;;0.50;0.50;;;;;6.20;95818.00;;;;5013885;28;20226;-60
2023/01/11 05:31:04;;;;;;;0.90;0.90;;;;;6.30;95830.00;;;;5015075;28;20676;-60
2023/01/11 05:33:32;;;;;;;0.63;0.63;;;;;6.30;95825.00;;;;5013730;28;20693;-60
2023/01/11 05:36:01;;;;;;;0.67;0.67;;;;;6.30;95830.00;;;;5014940;28;20254;-60
2023/01/11 05:38:29;;;;;;;1.13;1.03;;;;;6.40;95828.00;;;;5014854;28;20653;-60
2023/01/11 05:40:57;;;;;;;0.50;0.50;;;;;6.40;95832.00;;;;5014886;28;20196;-60
2023/01/11 05:43:27;;;;;;;0.50;0.50;;;;;6.50;95831.00;;;;5014778;28;20726;-60
2023/01/11 05:45:53;;;;;;;0.60;0.60;;;;;6.40;95822.00;;;;5014779;28;20193;-61
2023/01/11 05:48:21;;;;;;;0.70;0.70;;;;;6.50;95820.00;;;;5014601;28;20228;-61
2023/01/11 05:50:53;;;;;;;0.50;0.50;;;;;6.50;95811.00;;;;5015195;28;20220;-60
2023/01/11 05:53:21;;;;;;;0.60;0.60;;;;;6.40;95810.00;;;;5014955;28;20209;-60
2023/01/11 05:55:55;;;;;;;0.50;0.50;;;;;6.40;95797.00;;;;5014894;28;20224;-60
2023/01/11 05:58:26;;;;;;;0.60;0.60;;;;;6.40;95782.00;;;;5014348;28;20220;-60
2023/01/11 06:00:55;;;;;;;0.60;0.60;;;;;6.40;95773.00;;;;5014794;28;20255;-60
2023/01/11 06:03:25;;;;;;;0.60;0.60;;;;;6.40;95774.00;;;;5014498;28;20275;-60
2023/01/11 06:05:53;;;;;;;0.77;0.77;;;;;6.40;95767.00;;;;5014699;28;20669;-60
2023/01/11 06:08:21;;;;;;;0.77;0.77;;;;;6.40;95789.00;;;;5014298;28;20227;-60
2023/01/11 06:10:51;;;;;;;0.60;0.60;;;;;6.30;95789.00;;;;5014321;28;20250;-60
2023/01/11 06:13:27;;;;;;;0.80;0.80;;;;;6.30;95799.00;;;;5014918;28;20197;-60
2023/01/11 06:16:00;;;;;;;0.57;0.57;;;;;6.50;95804.00;;;;5014403;28;20178;-60
2023/01/11 06:18:29;;;;;;;1.23;1.10;;;;;6.40;95804.00;;;;5014204;28;20239;-60
2023/01/11 06:20:57;;;;;;;0.50;0.50;;;;;6.40;95793.00;;;;5014327;28;20199;-60
2023/01/11 06:23:25;;;;;;;0.83;0.83;;;;;6.50;95787.00;;;;5012727;28;20669;-60
2023/01/11 06:25:52;;;;;;;0.80;0.80;;;;;6.40;95790.00;;;;5013937;28;20257;-60
2023/01/11 06:28:20;;;;;;;0.60;0.60;;;;;6.40;95775.00;;;;5014137;28;20630;-60
2023/01/11 06:30:52;;;;;;;0.50;0.50;;;;;6.50;95773.00;;;;5014269;28;20272;-60
2023/01/11 06:33:22;;;;;;;0.50;0.50;;;;;6.50;95777.00;;;;5013951;28;20188;-60
2023/01/11 06:35:50;;;;;;;0.70;0.70;;;;;6.40;95775.00;;;;5013951;28;20193;-62
2023/01/11 06:38:19;;;;;;;0.50;0.50;;;;;6.40;95775.00;;;;5014519;28;20599;-60
2023/01/11 06:40:53;;;;;;;0.50;0.50;;;;;6.20;95763.00;;;;5013808;28;20711;-60
2023/01/11 06:43:21;;;;;;;0.60;0.60;;;;;6.20;95775.00;;;;5013818;28;20672;-60
2023/01/11 06:45:49;;;;;;;0.60;0.60;;;;;6.30;95776.00;;;;5014066;28;20597;-60
2023/01/11 06:48:17;;;;;;;0.60;0.60;;;;;6.30;95792.00;;;;5013559;28;20630;-61
2023/01/11 06:50:48;;;;;;;0.90;0.90;;;;;6.20;95793.00;;;;5013631;28;20204;-60
2023/01/11 06:53:15;;;;;;;1.03;1.03;;;;;6.20;95778.00;;;;5013645;28;20187;-60
2023/01/11 06:55:43;;;;;;;0.77;0.77;;;;;6.30;95779.00;;;;5013096;28;20202;-60
2023/01/11 06:58:11;;;;;;;0.70;0.70;;;;;6.40;95775.00;;;;5013735;28;20232;-60
2023/01/11 07:00:39;;;;;;;0.50;0.50;;;;;6.40;95764.00;;;;5013529;28;20195;-60
2023/01/11 07:03:07;;;;;;;0.90;0.90;;;;;6.30;95767.00;;;;5013527;28;20678;-60
2023/01/11 07:05:35;;;;;;;0.60;0.60;;;;;6.40;95762.00;;;;5013531;28;20198;-60
2023/01/11 07:08:04;;;;;;;0.70;0.70;;;;;6.30;95759.00;;;;5013395;28;20228;-60
2023/01/11 07:10:32;;;;;;;1.23;0.90;;;;;6.20;95759.00;;;;5013326;28;20197;-60
2023/01/11 07:12:59;;;;;;;0.53;0.53;;;;;6.20;95751.00;;;;5013389;28;20279;-60
2023/01/11 07:15:27;;;;;;;0.60;0.60;;;;;6.20;95746.00;;;;5013525;28;20562;-60
2023/01/11 07:17:55;;;;;;;0.70;0.70;;;;;6.20;95745.00;;;;5013215;28;20205;-60
2023/01/11 07:20:23;;;;;;;0.80;0.80;;;;;6.20;95732.00;;;;5013306;28;20197;-60
2023/01/11 07:22:50;;;;;;;0.70;0.70;;;;;6.30;95744.00;;;;5013815;28;20193;-60
2023/01/11 07:25:19;;;;;;;0.70;0.70;;;;;6.30;95760.00;;;;5013207;28;20197;-60
2023/01/11 07:27:47;;;;;;;0.60;0.60;;;;;6.50;95757.00;;;;5013593;28;20243;-60
2023/01/11 07:30:14;;;;;;;0.50;0.50;;;;;6.50;95755.00;;;;5013183;28;20207;-60
2023/01/11 07:32:42;;;;;;;0.80;0.80;;;;;6.60;95756.00;;;;5013680;28;20251;-60
2023/01/11 07:35:10;;;;;;;0.60;0.60;;;;;6.60;95760.00;;;;5013153;28;20680;-60
2023/01/11 07:37:40;;;;;;;0.70;0.70;;;;;6.50;95765.00;;;;5013159;28;20227;-60
2023/01/11 07:40:08;;;;;;;0.67;0.67;;;;;6.50;95757.00;;;;5013708;28;20220;-60
2023/01/11 07:45:22;;;;;;;0.50;0.50;;;;;6.80;95752.00;;;;5008972;28;20213;-60
2023/01/11 07:47:51;;;;;;;0.60;0.60;;;;;6.90;95742.00;;;;5009120;28;20233;-60
2023/01/11 07:50:18;;;;;;;0.60;0.60;;;;;6.80;95741.00;;;;5029258;28;20307;-60
2023/01/11 07:52:49;;;;;;;0.50;0.50;;;;;6.90;95738.00;;;;5022507;28;20690;-62
2023/01/11 07:55:17;;;;;;;0.60;0.60;;;;;6.90;95753.00;;;;5021781;28;20197;-61
2023/01/11 07:57:46;;;;;;;0.80;0.80;;;;;7.00;95748.00;;;;5010403;28;20599;-59
2023/01/11 08:00:14;;;;;;;0.93;0.93;;;;;7.00;95749.00;;;;5022424;28;20209;-60
2023/01/11 08:02:42;;;;;;;0.60;0.60;;;;;7.20;95755.00;;;;5026414;28;20197;-60
2023/01/11 08:05:10;;;;;;;0.60;0.60;;;;;7.10;95749.00;;;;5010621;28;20571;-59
2023/01/11 08:07:37;;;;;;;0.60;0.60;;;;;7.20;95761.00;;;;5011393;28;20278;-59
2023/01/11 08:10:06;;;;;;;0.90;0.90;;;;;7.20;95761.00;;;;5014226;28;20267;-59
2023/01/11 08:15:20;;;;;;;0.60;0.60;;;;;7.20;95755.00;;;;5033870;28;20663;-59
2023/01/11 08:17:47;;;;;;;0.60;0.60;;;;;7.10;95757.00;;;;5031921;28;20680;-59
2023/01/11 08:20:15;;;;;;;0.60;0.60;;;;;7.30;95749.00;;;;5016946;28;20727;-59
2023/01/11 08:22:42;;;;;;;0.70;0.70;;;;;7.30;95745.00;;;;5014135;28;20211;-60
2023/01/11 08:25:10;;;;;;;0.80;0.80;;;;;7.30;95743.00;;;;5013992;28;20208;-60
2023/01/11 08:27:38;;;;;;;0.80;0.80;;;;;7.30;95741.00;;;;5012990;28;20240;-60
2023/01/11 08:30:06;;;;;;;0.50;0.50;;;;;7.30;95743.00;;;;5013751;28;20250;-59
2023/01/11 08:32:35;;;;;;;0.60;0.60;;;;;7.30;95742.00;;;;5013715;28;20216;-59
2023/01/11 08:35:02;;;;;;;7.40;0.90;;;;;7.40;95749.00;;;;5014062;28;20201;-60
2023/01/11 08:37:30;;;;;;;1.50;0.70;;;;;7.40;95753.00;;;;5016079;28;20221;-59
2023/01/11 08:39:57;;;;;;;0.60;0.60;;;;;7.30;95757.00;;;;5033624;28;20195;-60
2023/01/11 08:42:25;;;;;;;0.50;0.50;;;;;7.30;95732.00;;;;5020958;28;20213;-60
2023/01/11 08:44:54;;;;;;;0.50;0.50;;;;;7.40;95762.00;;;;5013652;28;20553;-59
2023/01/11 08:47:22;;;;;;;0.67;0.67;;;;;7.50;95755.00;;;;5016588;28;20782;-59
2023/01/11 08:49:51;;;;;;;0.60;0.60;;;;;7.50;95760.00;;;;5031877;28;20225;-60
2023/01/11 08:52:18;;;;;;;0.70;0.70;;;;;7.50;95760.00;;;;5023939;28;20232;-59
2023/01/11 08:54:45;;;;;;;0.50;0.50;;;;;7.60;95765.00;;;;5024399;28;20267;-59
2023/01/11 08:57:13;;;;;;;0.50;0.50;;;;;7.50;95760.00;;;;5020172;28;20662;-59
2023/01/11 08:59:40;;;;;;;0.53;0.53;;;;;7.60;95759.00;;;;5013417;28;20212;-62
2023/01/11 09:02:09;;;;;;;0.67;0.67;;;;;7.50;95772.00;;;;5013646;28;20201;-59
2023/01/11 09:04:36;;;;;;;0.70;0.70;;;;;7.40;95756.00;;;;5012941;28;20627;-60
2023/01/11 09:07:05;;;;;;;0.50;0.50;;;;;7.40;95752.00;;;;5013570;28;20221;-59
2023/01/11 09:09:32;;;;;;;0.60;0.60;;;;;7.50;95765.00;;;;5012827;28;20217;-59
2023/01/11 09:12:01;;;;;;;0.60;0.60;;;;;7.70;95775.00;;;;5013100;28;20201;-60
2023/01/11 09:14:29;;;;;;;0.70;0.70;;;;;7.70;95773.00;;;;5013065;28;20252;-59
2023/01/11 09:16:57;;;;;;;1.30;1.20;;;;;7.90;95778.00;;;;5013311;28;20320;-60
2023/01/11 09:19:25;;;;;;;0.57;0.57;;;;;7.80;95777.00;;;;5029333;28;20193;-60
2023/01/11 09:21:55;;;;;;;0.50;0.50;;;;;7.70;95774.00;;;;5032663;28;20263;-59
2023/01/11 09:24:24;;;;;;;0.80;0.80;;;;;7.90;95757.00;;;;5032772;28;20656;-59
2023/01/11 09:26:51;;;;;;;0.43;0.43;;;;;7.90;95771.00;;;;5032626;28;20220;-59
2023/01/11 09:29:19;;;;;;;0.60;0.60;;;;;7.90;95775.00;;;;5032646;28;20220;-59
2023/01/11 09:31:47;;;;;;;0.50;0.50;;;;;7.90;95763.00;;;;5013113;28;20200;-59
2023/01/11 09:34:15;;;;;;;0.70;0.70;;;;;8.00;95756.00;;;;5027970;28;20682;-60
2023/01/11 09:36:43;;;;;;;0.50;0.50;;;;;8.00;95768.00;;;;5011980;28;20228;-60
2023/01/11 09:39:14;;;;;;;0.60;0.60;;;;;8.10;95773.00;;;;5031663;28;20193;-60
2023/01/11 09:42:16;;;;;;;0.83;0.83;;;;;8.00;95774.00;;;;5031631;28;20197;-60
2023/01/11 09:44:50;;;;;;;0.50;0.50;;;;;8.00;95770.00;;;;5026939;28;20199;-60
2023/01/11 09:47:26;;;;;;;0.90;0.90;;;;;8.10;95779.00;;;;5012007;28;20304;-60
2023/01/11 09:49:58;;;;;;;1.00;1.00;;;;;8.10;95780.00;;;;5018816;28;20231;-59
2023/01/11 09:52:31;;;;;;;0.60;0.60;;;;;8.10;95782.00;;;;5031384;28;20597;-60
2023/01/11 09:55:00;;;;;;;0.60;0.60;;;;;8.20;95797.00;;;;5012416;28;20190;-60
2023/01/11 09:57:42;;;;;;;0.50;0.50;;;;;8.30;95781.00;;;;5012151;28;20742;-60
2023/01/11 10:00:22;;;;;;;0.60;0.60;;;;;8.40;95786.00;;;;5028015;28;20524;-60
2023/01/11 10:03:09;;;;;;;1.40;0.73;;;;;8.50;95781.00;;;;5031630;28;21270;-60
2023/01/11 10:06:08;;;;;;;0.60;0.60;;;;;8.50;95790.00;;;;5012147;28;20201;-59
2023/01/11 10:09:03;;;;;;;0.50;0.50;;;;;8.50;95779.00;;;;4996520;28;20592;-59
2023/01/11 10:11:46;;;;;;;1.07;1.03;;;;;8.70;95767.00;;;;5017883;28;20331;-60
2023/01/11 10:14:32;;;;;;;0.70;0.70;;;;;8.80;95776.00;;;;5010684;28;20248;-60
2023/01/11 10:17:07;;;;;;;0.60;0.60;;;;;8.70;95780.00;;;;5012230;28;20253;-60
2023/01/11 10:19:39;;;;;;;0.50;0.50;;;;;8.70;95774.00;;;;5018222;28;20192;-59
2023/01/11 10:22:11;;;;;;;1.13;1.03;;;;;8.80;95781.00;;;;5029946;28;20220;-60
2023/01/11 10:24:43;;;;;;;1.43;1.33;;;;;8.90;95779.00;;;;5011780;28;20189;-60
2023/01/11 10:27:21;;;;;;;0.50;0.50;;;;;8.90;95777.00;;;;5011623;28;20221;-60
2023/01/11 10:30:11;;;;;;;0.50;0.50;;;;;8.90;95782.00;;;;5011132;28;20205;-59
2023/01/11 10:33:05;;;;;;;0.50;0.50;;;;;8.90;95777.00;;;;5016887;28;20527;-60
2023/01/11 10:35:57;;;;;;;0.40;0.40;;;;;8.90;95780.00;;;;5011549;28;20190;-59
2023/01/11 10:41:32;;;;;;;0.93;0.93;;;;;8.90;95780.00;;;;5028948;28;20196;-60
2023/01/11 10:44:11;;;;;;;1.00;1.00;;;;;9.00;95782.00;;;;5028976;28;20227;-60
2023/01/11 10:46:44;;;;;;;0.80;0.80;;;;;9.00;95777.00;;;;5031292;28;20579;-59
2023/01/11 10:49:33;;;;;;;0.50;0.50;;;;;8.90;95766.00;;;;5011313;28;20220;-60
2023/01/11 10:52:11;;;;;;;0.50;0.50;;;;;9.00;95773.00;;;;5029866;28;20231;-59
2023/01/11 10:54:44;;;;;;;0.50;0.50;;;;;8.90;95782.00;;;;5030647;28;20200;-60
2023/01/11 10:57:21;;;;;;;0.60;0.60;;;;;9.00;95787.00;;;;5031147;28;20231;-60
2023/01/11 11:00:13;;;;;;;0.60;0.60;;;;;9.00;95782.00;;;;5011168;28;20191;-60
2023/01/11 11:03:04;;;;;;;0.60;0.60;;;;;9.00;95781.00;;;;5026457;28;20201;-60
2023/01/11 11:05:42;;;;;;;0.87;0.70;;;;;9.10;95775.00;;;;5030816;28;20193;-63
2023/01/11 11:08:16;;;;;;;0.57;0.57;;;;;9.20;95774.00;;;;5031031;28;20225;-60
2023/01/11 11:10:52;;;;;;;0.50;0.50;;;;;9.20;95771.00;;;;5010938;28;20212;-60
2023/01/11 11:13:31;;;;;;;0.50;0.50;;;;;9.20;95761.00;;;;5011020;28;20189;-60
2023/01/11 11:16:07;;;;;;;0.70;0.70;;;;;9.20;95758.00;;;;5011044;28;20197;-60
2023/01/11 11:18:37;;;;;;;0.70;0.70;;;;;9.20;95764.00;;;;5011026;28;20189;-60
2023/01/11 11:21:10;;;;;;;0.53;0.53;;;;;9.10;95766.00;;;;5011288;28;20197;-60
2023/01/11 11:23:38;;;;;;;0.50;0.50;;;;;9.30;95768.00;;;;5026520;28;20189;-60
2023/01/11 11:26:07;;;;;;;0.50;0.50;;;;;9.10;95760.00;;;;5030577;28;20201;-60
2023/01/11 11:28:35;;;;;;;0.50;0.50;;;;;9.20;95768.00;;;;5030492;28;20675;-59
2023/01/11 11:31:05;;;;;;;0.50;0.50;;;;;9.20;95762.00;;;;5030445;28;20207;-60
2023/01/11 11:33:37;;;;;;;0.50;0.50;;;;;9.00;95764.00;;;;5029416;28;20648;-60
2023/01/11 11:36:07;;;;;;;0.60;0.60;;;;;9.10;95763.00;;;;5029227;28;20196;-60
2023/01/11 11:38:37;;;;;;;0.60;0.60;;;;;8.90;95766.00;;;;5026996;28;20255;-58
2023/01/11 11:41:07;;;;;;;0.60;0.60;;;;;9.00;95755.00;;;;5010160;28;20205;-58
2023/01/11 11:43:35;;;;;;;0.50;0.50;;;;;9.20;95752.00;;;;5014670;28;20205;-58
2023/01/11 11:46:04;;;;;;;0.90;0.90;;;;;9.10;95755.00;;;;5014613;28;20220;-58
2023/01/11 11:48:34;;;;;;;0.60;0.60;;;;;9.20;95758.00;;;;5013119;28;20221;-58
2023/01/11 11:51:06;;;;;;;0.60;0.60;;;;;9.20;95754.00;;;;5014444;28;20263;-58
2023/01/11 11:53:38;;;;;;;0.50;0.50;;;;;9.20;95756.00;;;;5029668;28;20193;-58
2023/01/11 11:56:21;;;;;;;0.50;0.50;;;;;9.00;95757.00;;;;5024611;28;20192;-58
2023/01/11 11:58:49;;;;;;;0.60;0.60;;;;;9.00;95750.00;;;;5031551;28;20220;-59
2023/01/11 12:01:27;;;;;;;1.07;1.07;;;;;9.00;95753.00;;;;5026926;28;20208;-60
2023/01/11 12:03:58;;;;;;;0.60;0.60;;;;;9.00;95736.00;;;;5034291;28;20308;-60
2023/01/11 12:06:29;;;;;;;0.60;0.60;;;;;9.00;95746.00;;;;5033881;28;20220;-60
2023/01/11 12:09:00;;;;;;;0.60;0.60;;;;;9.00;95747.00;;;;5014501;28;20252;-58
2023/01/11 12:11:31;;;;;;;0.60;0.60;;;;;8.90;95756.00;;;;5013601;28;20194;-60
2023/01/11 12:14:11;;;;;;;0.50;0.50;;;;;9.10;95744.00;;;;5013809;28;20204;-59
2023/01/11 12:16:40;;;;;;;0.50;0.50;;;;;9.00;95755.00;;;;5013945;28;20244;-62
2023/01/11 12:19:27;;;;;;;0.40;0.40;;;;;9.00;95763.00;;;;5032378;28;20532;-59
2023/01/11 12:22:11;;;;;;;0.60;0.60;;;;;9.10;95758.00;;;;5013040;28;20216;-59
2023/01/11 12:24:38;;;;;;;0.50;0.50;;;;;9.20;95760.00;;;;5013626;28;20303;-59
2023/01/11 12:27:15;;;;;;;0.60;0.60;;;;;9.20;95774.00;;;;5013879;28;20229;-59
2023/01/11 12:30:00;;;;;;;0.50;0.50;;;;;9.20;95763.00;;;;5013813;28;20209;-59
2023/01/11 12:33:05;;;;;;;0.60;0.60;;;;;8.90;95760.00;;;;5031254;28;20193;-59
2023/01/11 12:35:41;;;;;;;0.60;0.60;;;;;9.00;95757.00;;;;5033638;28;20726;-59
2023/01/11 12:38:25;;;;;;;0.50;0.50;;;;;9.00;95762.00;;;;5014333;28;20224;-59
2023/01/11 12:41:07;;;;;;;0.63;0.63;;;;;8.90;95762.00;;;;5014670;28;20182;-59
2023/01/11 12:43:51;;;;;;;1.43;1.33;;;;;8.90;95756.00;;;;5014355;28;20259;-59
2023/01/11 12:46:25;;;;;;;0.70;0.70;;;;;8.80;95758.00;;;;5014004;28;20193;-61
2023/01/11 12:49:07;;;;;;;0.67;0.67;;;;;8.90;95760.00;;;;5029608;28;20185;-59
2023/01/11 12:51:49;;;;;;;1.70;1.00;;;;;9.10;95763.00;;;;5033685;28;21341;-59
2023/01/11 12:54:37;;;;;;;0.70;0.70;;;;;9.10;95770.00;;;;5032856;28;20220;-59
2023/01/11 12:57:14;;;;;;;0.73;0.73;;;;;8.90;95773.00;;;;5030444;28;20236;-59
2023/01/11 13:00:18;;;;;;;0.50;0.50;;;;;8.80;95767.00;;;;5014049;28;20201;-59
2023/01/11 13:03:05;;;;;;;0.60;0.60;;;;;8.80;95763.00;;;;5033239;28;20560;-59
2023/01/11 13:05:38;;;;;;;0.50;0.50;;;;;8.80;95762.00;;;;5018999;28;20208;-59
2023/01/11 13:08:14;;;;;;;0.80;0.80;;;;;8.80;95767.00;;;;5033014;28;20633;-59
2023/01/11 13:10:53;;;;;;;0.80;0.80;;;;;8.80;95769.00;;;;5032977;28;20215;-60
2023/01/11 13:13:25;;;;;;;0.70;0.70;;;;;8.90;95774.00;;;;5013219;28;20190;-59
2023/01/11 13:15:58;;;;;;;0.60;0.60;;;;;9.00;95769.00;;;;5012832;28;20185;-59